Time;durP1;ratioP1;P1;durP2;ratioP2;P2;SDS_P1;SDS_P2;PMS_P1;PMS_P2;Temp;Humidity;BMP_temperature;BMP_pressure;BME280_temperature;BME280_humidity;BME280_pressure;Samples;Min_cycle;Max_cycle;Signal;HPM_P1;HPM_P2
2022/07/24 00:01:02;;;;;;;3.43;1.80;;;19.20;99.90;;;;;;5067956;28;20458;-90
2022/07/24 00:03:29;;;;;;;2.70;1.53;;;19.20;99.90;;;;;;5065038;28;20456;-87
2022/07/24 00:05:56;;;;;;;1.73;1.60;;;19.10;99.90;;;;;;5055601;28;20474;-88
2022/07/24 00:08:23;;;;;;;3.57;2.57;;;19.10;99.90;;;;;;5055913;28;21058;-86
2022/07/24 00:10:50;;;;;;;2.23;2.03;;;19.10;99.90;;;;;;5058662;28;20488;-86
2022/07/24 00:13:18;;;;;;;1.70;1.37;;;19.10;99.90;;;;;;5063890;28;20543;-87
2022/07/24 00:15:46;;;;;;;1.43;0.97;;;19.00;99.90;;;;;;5056126;28;20518;-85
2022/07/24 00:18:13;;;;;;;3.13;2.83;;;19.00;99.90;;;;;;5058433;28;20483;-86
2022/07/24 00:20:40;;;;;;;2.73;2.13;;;18.90;99.90;;;;;;5060933;28;20532;-86
2022/07/24 00:23:07;;;;;;;2.33;1.93;;;18.90;99.90;;;;;;5051865;28;20498;-89
2022/07/24 00:25:34;;;;;;;3.40;1.50;;;18.90;99.90;;;;;;5061218;28;20478;-87
2022/07/24 00:28:01;;;;;;;2.17;1.93;;;18.90;99.90;;;;;;5068282;28;20597;-87
2022/07/24 00:30:29;;;;;;;1.50;1.17;;;18.80;99.90;;;;;;5077923;28;20467;-87
2022/07/24 00:32:56;;;;;;;2.00;1.90;;;18.80;99.90;;;;;;5088977;28;20439;-87
2022/07/24 00:35:24;;;;;;;4.63;2.30;;;18.80;99.90;;;;;;5071573;28;20918;-88
2022/07/24 00:37:51;;;;;;;3.73;2.30;;;18.80;99.90;;;;;;5058272;28;20453;-87
2022/07/24 00:40:18;;;;;;;2.27;1.60;;;18.80;99.90;;;;;;5062070;28;20452;-87
2022/07/24 00:42:45;;;;;;;3.57;2.00;;;18.80;99.90;;;;;;5058608;28;20569;-87
2022/07/24 00:45:12;;;;;;;2.00;1.77;;;18.70;99.90;;;;;;5062831;28;20543;-86
2022/07/24 00:47:40;;;;;;;1.97;1.87;;;18.70;99.90;;;;;;5067629;28;20874;-88
2022/07/24 00:50:08;;;;;;;2.73;2.53;;;18.60;99.90;;;;;;5062577;28;20465;-87
2022/07/24 00:52:35;;;;;;;2.63;2.20;;;18.50;99.90;;;;;;5054083;28;20464;-90
2022/07/24 00:55:03;;;;;;;3.37;1.93;;;18.50;99.90;;;;;;5059106;28;20464;-86
2022/07/24 00:57:30;;;;;;;3.03;2.30;;;18.40;99.90;;;;;;5057287;28;20451;-88
2022/07/24 00:59:58;;;;;;;2.70;1.50;;;18.40;99.90;;;;;;5049275;28;20496;-87
2022/07/24 01:02:25;;;;;;;6.00;1.97;;;18.40;99.90;;;;;;5056997;28;20905;-88
2022/07/24 01:04:53;;;;;;;2.20;1.70;;;18.30;99.90;;;;;;5066062;28;20523;-87
2022/07/24 01:07:20;;;;;;;2.80;2.13;;;18.40;99.90;;;;;;5062848;28;21592;-87
2022/07/24 01:09:47;;;;;;;1.40;1.30;;;18.30;99.90;;;;;;5053469;28;20513;-87
2022/07/24 01:12:14;;;;;;;2.20;1.70;;;18.30;99.90;;;;;;5056970;28;20495;-87
2022/07/24 01:14:41;;;;;;;4.53;1.23;;;18.30;99.90;;;;;;5064493;28;20439;-88
2022/07/24 01:17:08;;;;;;;3.97;2.40;;;18.30;99.90;;;;;;5065262;28;20480;-89
2022/07/24 01:19:35;;;;;;;1.67;1.57;;;18.20;99.90;;;;;;5055959;28;21163;-87
2022/07/24 01:22:04;;;;;;;3.73;2.30;;;18.20;99.90;;;;;;5052656;28;20848;-87
2022/07/24 01:24:31;;;;;;;4.10;2.67;;;18.30;99.90;;;;;;5061513;28;20450;-87
2022/07/24 01:26:58;;;;;;;2.73;2.53;;;18.40;99.90;;;;;;5055931;28;20556;-88
2022/07/24 01:29:25;;;;;;;1.93;1.43;;;18.40;99.90;;;;;;5052473;28;20446;-86
2022/07/24 01:31:52;;;;;;;2.30;2.20;;;18.50;99.90;;;;;;5087159;28;20521;-88
2022/07/24 01:34:19;;;;;;;2.93;2.00;;;18.40;99.90;;;;;;5063693;28;20458;-86
2022/07/24 01:36:47;;;;;;;3.70;2.03;;;18.40;99.90;;;;;;5068179;28;20955;-87
2022/07/24 01:39:15;;;;;;;3.13;1.90;;;18.30;99.90;;;;;;5066217;28;20444;-87
2022/07/24 01:41:42;;;;;;;2.47;2.27;;;18.20;99.90;;;;;;5056591;28;20465;-90
2022/07/24 01:44:09;;;;;;;2.70;2.30;;;18.20;99.90;;;;;;5054436;28;20864;-86
2022/07/24 01:46:36;;;;;;;2.67;2.13;;;18.20;99.90;;;;;;5065810;28;20450;-87
2022/07/24 01:49:04;;;;;;;3.43;2.93;;;18.20;99.90;;;;;;5056281;28;20989;-87
2022/07/24 01:51:31;;;;;;;3.23;2.67;;;18.10;99.90;;;;;;5060971;28;20459;-87
2022/07/24 01:53:58;;;;;;;1.40;1.27;;;18.00;99.90;;;;;;5062390;28;20512;-87
2022/07/24 01:56:26;;;;;;;2.97;1.77;;;18.00;99.90;;;;;;5059095;28;20505;-87
2022/07/24 01:58:53;;;;;;;2.40;2.10;;;18.00;99.90;;;;;;5056298;28;20478;-87
2022/07/24 02:01:20;;;;;;;4.83;2.60;;;17.90;99.90;;;;;;5057774;28;20456;-87
2022/07/24 02:03:48;;;;;;;3.33;2.13;;;18.00;99.90;;;;;;5060718;28;20446;-87
2022/07/24 02:06:15;;;;;;;2.50;2.20;;;17.90;99.90;;;;;;5052652;28;20455;-87
2022/07/24 02:08:42;;;;;;;2.80;1.73;;;17.90;99.90;;;;;;5062400;28;20477;-88
2022/07/24 02:11:09;;;;;;;1.73;1.63;;;17.90;99.90;;;;;;5058247;28;20465;-87
2022/07/24 02:13:38;;;;;;;3.20;2.30;;;17.90;99.90;;;;;;5059250;28;20454;-88
2022/07/24 02:16:06;;;;;;;2.93;2.73;;;18.00;99.90;;;;;;5051885;28;20877;-88
2022/07/24 02:18:33;;;;;;;5.20;2.63;;;18.00;99.90;;;;;;5055964;28;20460;-87
2022/07/24 02:21:00;;;;;;;3.63;1.80;;;18.00;99.90;;;;;;5063076;28;20466;-87
2022/07/24 02:23:27;;;;;;;2.40;2.10;;;18.00;99.90;;;;;;5058993;28;20513;-88
2022/07/24 02:25:54;;;;;;;2.37;2.17;;;18.00;99.90;;;;;;5064282;28;20817;-87
2022/07/24 02:28:21;;;;;;;1.90;1.63;;;18.00;99.90;;;;;;5064648;28;20487;-87
2022/07/24 02:30:50;;;;;;;2.97;2.40;;;17.90;99.90;;;;;;5053682;28;20878;-87
2022/07/24 02:33:17;;;;;;;3.47;2.00;;;17.90;99.90;;;;;;5065159;28;20454;-87
2022/07/24 02:35:44;;;;;;;2.23;1.83;;;17.90;99.90;;;;;;5053630;28;20518;-87
2022/07/24 02:38:11;;;;;;;3.30;3.00;;;18.00;99.90;;;;;;5062503;28;20551;-87
2022/07/24 02:40:38;;;;;;;3.70;2.63;;;17.90;99.90;;;;;;5066684;28;20467;-88
2022/07/24 02:43:05;;;;;;;3.73;1.27;;;17.90;99.90;;;;;;5067013;28;20464;-87
2022/07/24 02:45:32;;;;;;;1.73;1.63;;;17.90;99.90;;;;;;5059091;28;20471;-88
2022/07/24 02:48:00;;;;;;;2.20;2.00;;;17.90;99.90;;;;;;5064503;28;20540;-86
2022/07/24 02:50:36;;;;;;;1.70;1.60;;;17.70;99.90;;;;;;5056969;28;20465;-87
2022/07/24 02:53:03;;;;;;;2.77;1.93;;;17.70;99.90;;;;;;5056333;28;20966;-89
2022/07/24 02:55:30;;;;;;;1.97;1.57;;;17.70;99.90;;;;;;5058933;28;20463;-87
2022/07/24 02:57:57;;;;;;;2.70;1.80;;;17.60;99.90;;;;;;5069104;28;20437;-89
2022/07/24 03:00:25;;;;;;;2.13;1.93;;;17.50;99.90;;;;;;5058263;28;20454;-88
2022/07/24 03:02:52;;;;;;;4.30;1.97;;;17.60;99.90;;;;;;5060932;28;21042;-86
2022/07/24 03:05:20;;;;;;;2.00;1.80;;;17.50;99.90;;;;;;5063222;28;20460;-87
2022/07/24 03:07:48;;;;;;;3.40;2.10;;;17.60;99.90;;;;;;5057073;28;20985;-87
2022/07/24 03:10:16;;;;;;;3.43;2.10;;;17.50;99.90;;;;;;5067726;28;20462;-87
2022/07/24 03:12:44;;;;;;;1.37;1.23;;;17.50;99.90;;;;;;5058971;28;20730;-85
2022/07/24 03:15:13;;;;;;;3.30;2.00;;;17.50;99.90;;;;;;5063012;28;20464;-89
2022/07/24 03:17:40;;;;;;;2.20;1.77;;;17.60;99.90;;;;;;5065775;28;20655;-86
2022/07/24 03:20:10;;;;;;;1.90;1.70;;;17.50;99.90;;;;;;5053509;28;20842;-91
2022/07/24 03:22:38;;;;;;;2.20;2.00;;;17.50;99.90;;;;;;5058568;28;20503;-89
2022/07/24 03:25:05;;;;;;;2.37;2.17;;;17.50;99.90;;;;;;5056648;28;20462;-88
2022/07/24 03:27:32;;;;;;;2.20;1.60;;;17.50;99.90;;;;;;5057235;28;20479;-87
2022/07/24 03:29:59;;;;;;;2.63;1.90;;;17.50;99.90;;;;;;5059201;28;20466;-89
2022/07/24 03:32:26;;;;;;;3.00;2.20;;;17.50;99.90;;;;;;5065308;28;20501;-87
2022/07/24 03:34:53;;;;;;;2.73;2.37;;;17.50;99.90;;;;;;5062962;28;20464;-87
2022/07/24 03:37:20;;;;;;;2.10;1.50;;;17.50;99.90;;;;;;5065708;28;20463;-87
2022/07/24 03:39:49;;;;;;;2.23;1.63;;;17.50;99.90;;;;;;5063420;28;20456;-88
2022/07/24 03:42:16;;;;;;;2.20;1.83;;;17.70;99.90;;;;;;5065980;28;21188;-87
2022/07/24 03:44:43;;;;;;;2.20;2.00;;;17.70;99.90;;;;;;5057714;28;20483;-87
2022/07/24 03:47:10;;;;;;;2.73;1.60;;;17.80;99.90;;;;;;5063949;28;20454;-87
2022/07/24 03:49:37;;;;;;;2.80;1.90;;;17.80;99.90;;;;;;5065821;28;20483;-87
2022/07/24 03:52:04;;;;;;;2.03;1.60;;;17.80;99.90;;;;;;5058581;28;20858;-87
2022/07/24 03:54:31;;;;;;;3.00;2.70;;;17.80;99.90;;;;;;5060785;28;20466;-88
2022/07/24 03:57:00;;;;;;;1.37;1.20;;;17.70;99.90;;;;;;5058403;28;20455;-87
2022/07/24 03:59:27;;;;;;;2.17;1.97;;;17.80;99.90;;;;;;5055950;28;20460;-89
2022/07/24 04:01:54;;;;;;;4.03;1.50;;;17.80;99.90;;;;;;5065534;28;20519;-88
2022/07/24 04:04:21;;;;;;;5.07;2.43;;;17.70;99.90;;;;;;5059449;28;20457;-87
2022/07/24 04:06:48;;;;;;;6.20;2.67;;;17.70;99.90;;;;;;5061331;28;20466;-88
2022/07/24 04:09:15;;;;;;;2.30;2.10;;;17.80;99.90;;;;;;5054669;28;20533;-87
2022/07/24 04:11:44;;;;;;;2.90;2.07;;;17.90;99.90;;;;;;5063580;28;20459;-87
2022/07/24 04:14:12;;;;;;;2.23;1.90;;;17.90;99.90;;;;;;5063490;28;20846;-87
2022/07/24 04:16:39;;;;;;;2.60;2.40;;;18.00;99.90;;;;;;5060935;28;20484;-87
2022/07/24 04:19:06;;;;;;;4.70;2.50;;;18.00;99.90;;;;;;5063181;28;20525;-88
2022/07/24 04:21:33;;;;;;;3.57;1.60;;;18.00;99.90;;;;;;5063944;28;20460;-87
2022/07/24 04:24:00;;;;;;;3.97;2.83;;;18.10;99.90;;;;;;5064157;28;20474;-87
2022/07/24 04:26:27;;;;;;;2.17;2.07;;;18.10;99.90;;;;;;5050933;28;20461;-87
2022/07/24 04:28:54;;;;;;;3.43;2.57;;;18.20;99.90;;;;;;5074961;28;20581;-88
2022/07/24 04:31:23;;;;;;;2.63;2.37;;;18.20;99.90;;;;;;5068924;28;20506;-87
2022/07/24 04:33:49;;;;;;;3.40;1.80;;;18.20;99.90;;;;;;5080191;28;20437;-88
2022/07/24 04:36:16;;;;;;;3.20;2.17;;;18.30;99.90;;;;;;5072842;28;20439;-87
2022/07/24 04:38:43;;;;;;;2.37;1.80;;;18.60;99.90;;;;;;5050421;28;20855;-86
2022/07/24 04:41:10;;;;;;;2.07;1.87;;;18.70;99.90;;;;;;5066529;28;20488;-86
2022/07/24 04:43:37;;;;;;;3.90;1.93;;;18.80;99.90;;;;;;5064110;28;20577;-87
2022/07/24 04:46:05;;;;;;;3.60;2.63;;;18.90;99.90;;;;;;5068372;28;20952;-87
2022/07/24 04:48:33;;;;;;;4.33;2.40;;;19.00;99.90;;;;;;5069389;28;20538;-86
2022/07/24 04:51:00;;;;;;;1.73;1.63;;;19.10;99.90;;;;;;5062415;28;20468;-88
2022/07/24 04:53:30;;;;;;;1.70;1.60;;;19.10;99.90;;;;;;5062890;28;20582;-87
2022/07/24 04:55:57;;;;;;;1.30;1.20;;;19.00;99.90;;;;;;5059773;28;20449;-88
2022/07/24 04:58:24;;;;;;;1.83;1.70;;;19.00;99.90;;;;;;5072502;28;20474;-87
2022/07/24 05:00:51;;;;;;;2.27;2.07;;;19.00;99.90;;;;;;5071837;28;21026;-87
2022/07/24 05:03:18;;;;;;;2.60;1.63;;;19.00;99.90;;;;;;5083365;28;20431;-86
2022/07/24 05:05:47;;;;;;;5.97;3.17;;;19.20;99.90;;;;;;5069588;28;20495;-87
2022/07/24 05:08:14;;;;;;;2.70;2.17;;;19.30;99.90;;;;;;5059372;28;20542;-86
2022/07/24 05:10:41;;;;;;;2.70;2.50;;;19.50;99.90;;;;;;5066716;28;20465;-84
2022/07/24 05:13:08;;;;;;;1.63;1.53;;;19.40;99.90;;;;;;5057009;28;20524;-86
2022/07/24 05:15:35;;;;;;;2.20;2.10;;;19.50;99.90;;;;;;5067096;28;20458;-86
2022/07/24 05:18:02;;;;;;;3.10;2.80;;;19.40;99.90;;;;;;5066743;28;21173;-87
2022/07/24 05:20:29;;;;;;;1.73;1.63;;;19.60;99.90;;;;;;5056981;28;20460;-86
2022/07/24 05:22:58;;;;;;;2.67;2.20;;;19.90;99.90;;;;;;5065142;28;20458;-88
2022/07/24 05:25:25;;;;;;;2.00;1.77;;;20.10;99.90;;;;;;5060387;28;20459;-85
2022/07/24 05:27:52;;;;;;;2.97;2.60;;;20.10;99.90;;;;;;5065874;28;20806;-89
2022/07/24 05:30:19;;;;;;;3.63;2.97;;;20.10;99.90;;;;;;5063031;28;21142;-85
2022/07/24 05:32:46;;;;;;;1.70;1.60;;;19.90;99.90;;;;;;5056429;28;20471;-85
2022/07/24 05:35:13;;;;;;;4.77;2.97;;;20.00;99.90;;;;;;5064860;28;20455;-89
2022/07/24 05:37:40;;;;;;;2.63;2.43;;;20.00;99.90;;;;;;5061264;28;20605;-85
2022/07/24 05:40:09;;;;;;;4.03;3.67;;;20.10;99.90;;;;;;5061466;28;20468;-86
2022/07/24 05:42:36;;;;;;;2.77;2.57;;;20.30;99.90;;;;;;5051134;28;20468;-86
2022/07/24 05:45:04;;;;;;;2.30;2.10;;;20.40;99.90;;;;;;5066959;28;20462;-86
2022/07/24 05:47:36;;;;;;;4.53;4.03;;;20.40;99.90;;;;;;5066178;28;20970;-85
2022/07/24 05:50:04;;;;;;;8.53;3.27;;;20.40;99.90;;;;;;5065543;28;20487;-87
2022/07/24 05:52:31;;;;;;;5.97;2.33;;;20.30;99.90;;;;;;5062174;28;20462;-85
2022/07/24 05:54:58;;;;;;;3.07;2.47;;;20.20;99.90;;;;;;5063875;28;20962;-86
2022/07/24 05:57:26;;;;;;;5.97;3.40;;;20.00;99.90;;;;;;5065293;28;20444;-85
2022/07/24 05:59:53;;;;;;;5.37;4.00;;;20.00;99.90;;;;;;5051127;28;20528;-86
2022/07/24 06:02:20;;;;;;;3.63;2.80;;;20.20;99.90;;;;;;5050477;28;20505;-89
2022/07/24 06:04:47;;;;;;;3.17;2.60;;;20.40;99.90;;;;;;5060262;28;20516;-87
2022/07/24 06:07:14;;;;;;;3.47;3.17;;;20.50;99.90;;;;;;5064731;28;20516;-88
2022/07/24 06:09:41;;;;;;;3.97;3.57;;;20.90;99.90;;;;;;5064223;28;20541;-85
2022/07/24 06:12:09;;;;;;;2.17;2.07;;;21.10;99.90;;;;;;5055644;28;20467;-89
2022/07/24 06:14:37;;;;;;;2.33;2.03;;;21.40;99.90;;;;;;5048325;28;20469;-89
2022/07/24 06:17:04;;;;;;;2.70;2.17;;;21.40;99.90;;;;;;5061916;28;20882;-86
2022/07/24 06:19:31;;;;;;;4.07;2.10;;;21.30;99.90;;;;;;5055304;28;20536;-86
2022/07/24 06:21:58;;;;;;;2.43;2.23;;;21.30;99.90;;;;;;5057778;28;20989;-87
2022/07/24 06:24:25;;;;;;;2.93;2.73;;;21.60;99.90;;;;;;5065958;28;20451;-86
2022/07/24 06:26:52;;;;;;;3.03;2.63;;;22.00;99.90;;;;;;5054308;28;20467;-86
2022/07/24 06:29:19;;;;;;;4.27;3.20;;;22.20;99.90;;;;;;5056903;28;20483;-86
2022/07/24 06:31:48;;;;;;;3.00;2.80;;;22.40;99.90;;;;;;5060129;28;20455;-86
2022/07/24 06:34:15;;;;;;;4.10;3.00;;;22.40;99.90;;;;;;5065419;28;20440;-89
2022/07/24 06:36:42;;;;;;;2.93;2.73;;;22.50;99.90;;;;;;5051335;28;20463;-85
2022/07/24 06:39:09;;;;;;;4.00;3.00;;;22.50;99.90;;;;;;5053057;28;20456;-90
2022/07/24 06:41:36;;;;;;;2.87;2.60;;;22.80;99.90;;;;;;5058131;28;20472;-86
2022/07/24 06:44:03;;;;;;;3.13;2.60;;;22.70;99.90;;;;;;5056707;28;20464;-86
2022/07/24 06:46:30;;;;;;;3.43;3.20;;;22.90;99.90;;;;;;5058192;28;20472;-86
2022/07/24 06:48:58;;;;;;;3.57;3.23;;;23.10;99.90;;;;;;5054640;28;20533;-90
2022/07/24 06:51:25;;;;;;;3.30;3.10;;;23.20;99.90;;;;;;5066354;28;20521;-88
2022/07/24 06:53:52;;;;;;;6.00;3.80;;;23.40;99.90;;;;;;5063027;28;20468;-89
2022/07/24 06:56:19;;;;;;;4.50;3.60;;;23.80;99.90;;;;;;5064014;28;20452;-86
2022/07/24 06:58:46;;;;;;;3.10;2.77;;;23.60;99.90;;;;;;5063320;28;20543;-86
2022/07/24 07:01:13;;;;;;;3.23;3.00;;;23.10;99.90;;;;;;5060821;28;20525;-86
2022/07/24 07:03:42;;;;;;;3.47;3.03;;;23.30;99.90;;;;;;5052587;28;20541;-86
2022/07/24 07:06:10;;;;;;;3.63;3.33;;;23.70;99.90;;;;;;5065038;28;21145;-87
2022/07/24 07:08:37;;;;;;;3.77;3.47;;;23.80;99.90;;;;;;5068428;28;20539;-89
2022/07/24 07:11:04;;;;;;;3.70;3.00;;;24.20;99.90;;;;;;5067419;28;20447;-86
2022/07/24 07:13:31;;;;;;;4.93;4.00;;;24.20;99.90;;;;;;5060045;28;20489;-85
2022/07/24 07:15:58;;;;;;;4.20;3.20;;;23.80;99.90;;;;;;5063743;28;20954;-85
2022/07/24 07:18:25;;;;;;;4.43;4.03;;;23.50;99.90;;;;;;5064169;28;20530;-89
2022/07/24 07:20:53;;;;;;;3.90;3.60;;;23.40;99.90;;;;;;5062971;28;20471;-86
2022/07/24 07:23:26;;;;;;;4.37;3.10;;;23.30;99.90;;;;;;5063147;28;20562;-86
2022/07/24 07:25:54;;;;;;;4.67;3.43;;;23.40;99.90;;;;;;5072574;28;20599;-86
2022/07/24 07:28:21;;;;;;;3.77;3.20;;;23.50;99.90;;;;;;5076923;28;20460;-85
2022/07/24 07:30:48;;;;;;;6.10;3.97;;;23.80;99.90;;;;;;5079091;28;20475;-85
2022/07/24 07:33:15;;;;;;;4.37;3.97;;;23.80;99.90;;;;;;5071601;28;20455;-85
2022/07/24 07:35:42;;;;;;;2.90;2.70;;;23.90;99.90;;;;;;5062632;28;20908;-85
2022/07/24 07:38:09;;;;;;;4.50;3.13;;;23.70;99.90;;;;;;5066050;28;20445;-86
2022/07/24 07:40:37;;;;;;;4.73;4.33;;;23.80;99.90;;;;;;5063554;28;20452;-86
2022/07/24 07:43:04;;;;;;;3.23;2.83;;;24.50;99.90;;;;;;5061576;28;20460;-85
2022/07/24 07:45:31;;;;;;;3.83;3.53;;;24.30;99.90;;;;;;5056288;28;21040;-88
2022/07/24 07:47:58;;;;;;;4.10;3.70;;;23.90;99.90;;;;;;5060584;28;20453;-89
2022/07/24 07:50:25;;;;;;;3.50;3.20;;;23.90;99.90;;;;;;5063396;28;20553;-85
2022/07/24 07:52:52;;;;;;;2.90;2.70;;;23.70;99.90;;;;;;5061489;28;20464;-86
2022/07/24 07:55:19;;;;;;;3.87;3.47;;;23.90;99.90;;;;;;5063265;28;20541;-87
2022/07/24 07:57:49;;;;;;;3.83;3.53;;;23.60;99.90;;;;;;5056650;28;20925;-87
2022/07/24 08:00:17;;;;;;;3.80;3.50;;;24.00;99.90;;;;;;5053845;28;20560;-85
2022/07/24 08:02:44;;;;;;;2.80;2.60;;;24.50;99.90;;;;;;5057946;28;20995;-89
2022/07/24 08:05:11;;;;;;;3.23;2.90;;;24.80;99.90;;;;;;5057636;28;20952;-85
2022/07/24 08:07:38;;;;;;;3.13;2.93;;;24.90;99.90;;;;;;5060293;28;20537;-85
2022/07/24 08:10:06;;;;;;;3.30;3.00;;;25.00;99.20;;;;;;5062678;28;20557;-86
2022/07/24 08:12:33;;;;;;;4.30;3.90;;;25.10;98.40;;;;;;5062471;28;20522;-85
2022/07/24 08:15:02;;;;;;;4.00;3.67;;;25.40;97.50;;;;;;5061874;28;20452;-85
2022/07/24 08:17:29;;;;;;;3.67;3.30;;;25.00;98.20;;;;;;5052103;28;20488;-85
2022/07/24 08:19:56;;;;;;;2.33;2.13;;;25.30;97.90;;;;;;5058231;28;20475;-88
2022/07/24 08:22:23;;;;;;;3.77;3.47;;;25.30;98.60;;;;;;5055897;28;20990;-86
2022/07/24 08:24:50;;;;;;;4.93;4.30;;;25.30;97.40;;;;;;5061121;28;20503;-88
2022/07/24 08:27:17;;;;;;;3.70;3.40;;;25.80;97.20;;;;;;5056803;28;20459;-86
2022/07/24 08:29:44;;;;;;;4.40;4.00;;;25.70;97.40;;;;;;5064649;28;20495;-85
2022/07/24 08:32:12;;;;;;;4.67;4.27;;;25.20;97.90;;;;;;5074022;28;20448;-87
2022/07/24 08:34:39;;;;;;;4.07;3.67;;;25.00;98.50;;;;;;5066121;28;20510;-85
2022/07/24 08:37:06;;;;;;;4.97;4.47;;;25.10;98.60;;;;;;5061170;28;20469;-90
2022/07/24 08:39:33;;;;;;;4.33;4.03;;;25.60;97.90;;;;;;5061741;28;20472;-88
2022/07/24 08:42:00;;;;;;;5.30;4.80;;;25.60;97.80;;;;;;5061398;28;20464;-85
2022/07/24 08:44:27;;;;;;;3.20;2.83;;;25.50;98.00;;;;;;5059134;28;20456;-87
2022/07/24 08:46:55;;;;;;;3.47;3.23;;;25.70;97.80;;;;;;5060619;28;20464;-86
2022/07/24 08:49:27;;;;;;;4.33;3.90;;;26.30;98.20;;;;;;5054752;28;20553;-88
2022/07/24 08:51:56;;;;;;;4.77;4.40;;;26.60;97.00;;;;;;5055796;28;20462;-87
2022/07/24 08:54:24;;;;;;;4.23;3.93;;;26.70;97.00;;;;;;5064457;28;20467;-88
2022/07/24 08:56:51;;;;;;;3.87;3.57;;;26.50;95.00;;;;;;5057455;28;20463;-86
2022/07/24 08:59:20;;;;;;;4.73;4.30;;;26.50;95.50;;;;;;5058889;28;20566;-86
2022/07/24 09:01:49;;;;;;;5.70;3.13;;;26.70;95.40;;;;;;5054855;28;20464;-85
2022/07/24 09:04:40;;;;;;;3.80;3.50;;;26.70;94.70;;;;;;5058945;28;21019;-85
2022/07/24 09:07:09;;;;;;;4.30;3.97;;;27.00;94.40;;;;;;5059654;28;21144;-84
2022/07/24 09:09:36;;;;;;;3.57;3.20;;;26.70;93.60;;;;;;5056447;28;20806;-88
2022/07/24 09:12:05;;;;;;;3.30;3.00;;;26.80;93.70;;;;;;5053670;28;20858;-89
2022/07/24 09:14:33;;;;;;;2.97;2.77;;;26.90;92.80;;;;;;5054738;28;20464;-88
2022/07/24 09:17:04;;;;;;;4.10;3.80;;;26.80;92.90;;;;;;5053768;28;20677;-90
2022/07/24 09:19:32;;;;;;;3.40;3.20;;;27.10;93.20;;;;;;5056434;28;21082;-91
2022/07/24 09:22:00;;;;;;;4.00;3.70;;;27.20;90.90;;;;;;5055588;28;20487;-87
2022/07/24 09:24:27;;;;;;;4.93;3.27;;;27.50;91.80;;;;;;5054371;28;20464;-89
2022/07/24 09:26:56;;;;;;;4.07;3.67;;;27.30;91.50;;;;;;5060959;28;20459;-89
2022/07/24 09:29:26;;;;;;;3.40;3.20;;;27.40;86.30;;;;;;5062173;28;20452;-85
2022/07/24 09:31:55;;;;;;;3.73;3.43;;;27.40;88.10;;;;;;5062256;28;20484;-84
2022/07/24 09:34:22;;;;;;;3.67;3.37;;;27.60;90.30;;;;;;5052584;28;21154;-85
2022/07/24 09:36:58;;;;;;;2.60;2.47;;;27.60;88.90;;;;;;5054882;28;20488;-85
2022/07/24 09:39:27;;;;;;;3.30;3.10;;;27.70;88.90;;;;;;5059028;28;20452;-86
2022/07/24 09:41:56;;;;;;;3.20;3.00;;;27.50;87.70;;;;;;5057021;28;20455;-88
2022/07/24 09:44:25;;;;;;;4.47;4.07;;;27.80;87.70;;;;;;5056251;28;20456;-85
2022/07/24 09:47:04;;;;;;;3.60;3.30;;;27.80;83.80;;;;;;5057312;28;20559;-86
2022/07/24 09:49:32;;;;;;;3.00;2.80;;;27.60;87.10;;;;;;5052205;28;20529;-86
2022/07/24 09:52:15;;;;;;;3.33;3.03;;;27.50;87.50;;;;;;5058731;28;20513;-90
2022/07/24 09:54:46;;;;;;;4.33;4.03;;;27.90;89.30;;;;;;5056870;28;20924;-89
2022/07/24 09:57:19;;;;;;;3.70;3.40;;;27.70;87.30;;;;;;5058609;28;20458;-89
2022/07/24 09:59:48;;;;;;;2.87;2.63;;;27.80;91.40;;;;;;5052979;28;20953;-89
2022/07/24 10:02:17;;;;;;;3.90;3.53;;;28.20;90.40;;;;;;5055738;28;20459;-87
2022/07/24 10:04:46;;;;;;;3.63;3.10;;;28.30;87.20;;;;;;5058467;28;20525;-85
2022/07/24 10:07:16;;;;;;;3.90;3.60;;;28.30;86.90;;;;;;5057563;28;20447;-85
2022/07/24 10:09:46;;;;;;;3.50;3.03;;;28.30;86.40;;;;;;5061569;28;20483;-85
2022/07/24 10:12:16;;;;;;;3.80;3.50;;;28.50;86.60;;;;;;5059524;28;20437;-85
2022/07/24 10:14:45;;;;;;;4.40;4.00;;;28.40;82.20;;;;;;5061507;28;20895;-86
2022/07/24 10:17:14;;;;;;;3.93;3.53;;;28.40;86.50;;;;;;5057577;28;20565;-85
2022/07/24 10:19:45;;;;;;;3.70;2.90;;;28.70;84.70;;;;;;5063893;28;20452;-86
2022/07/24 10:22:13;;;;;;;4.07;3.73;;;28.50;81.40;;;;;;5066511;28;20482;-87
2022/07/24 10:24:57;;;;;;;2.80;2.60;;;28.80;85.00;;;;;;5077062;28;20479;-84
2022/07/24 10:27:28;;;;;;;3.47;3.20;;;28.80;85.10;;;;;;5078108;28;20447;-82
2022/07/24 10:29:57;;;;;;;4.40;4.20;;;28.50;81.60;;;;;;5068409;28;20491;-83
2022/07/24 10:32:25;;;;;;;2.83;2.63;;;28.60;82.90;;;;;;5064183;28;20497;-84
2022/07/24 10:35:02;;;;;;;3.10;2.90;;;28.80;84.00;;;;;;5054525;28;21025;-85
2022/07/24 10:37:38;;;;;;;3.33;3.13;;;28.60;75.90;;;;;;5065112;28;20505;-85
2022/07/24 10:40:13;;;;;;;4.17;3.77;;;28.60;80.40;;;;;;5062690;28;20501;-85
2022/07/24 10:43:09;;;;;;;3.00;2.80;;;28.90;78.10;;;;;;5064441;28;21018;-86
2022/07/24 10:45:37;;;;;;;2.60;2.40;;;28.60;74.00;;;;;;5061907;28;20827;-85
2022/07/24 10:48:32;;;;;;;2.90;2.70;;;28.50;73.90;;;;;;5059942;28;20846;-87
2022/07/24 10:51:13;;;;;;;4.60;3.30;;;29.00;71.40;;;;;;5055122;28;20488;-85
2022/07/24 10:53:50;;;;;;;3.23;2.93;;;29.00;69.00;;;;;;5063854;28;20446;-85
2022/07/24 10:56:24;;;;;;;2.73;2.53;;;29.10;71.90;;;;;;5053753;28;20460;-90
2022/07/24 10:59:10;;;;;;;3.60;3.30;;;28.70;69.50;;;;;;5056094;28;20629;-86
2022/07/24 11:01:44;;;;;;;3.00;2.80;;;28.00;71.10;;;;;;5064119;28;20444;-86
2022/07/24 11:04:29;;;;;;;3.57;2.77;;;28.00;70.70;;;;;;5062678;28;20479;-86
2022/07/24 11:07:01;;;;;;;2.73;2.53;;;28.40;74.50;;;;;;5051541;28;20491;-89
2022/07/24 11:09:29;;;;;;;2.60;2.00;;;28.70;73.60;;;;;;5061221;28;20445;-90
2022/07/24 11:12:14;;;;;;;4.80;3.00;;;29.00;70.50;;;;;;5064868;28;20585;-85
2022/07/24 11:14:51;;;;;;;3.50;2.77;;;29.20;68.90;;;;;;5063060;28;20463;-85
2022/07/24 11:17:39;;;;;;;3.13;2.93;;;29.10;70.90;;;;;;5063148;28;20478;-85
2022/07/24 11:20:08;;;;;;;8.73;3.47;;;29.20;68.00;;;;;;5059119;28;20960;-84
2022/07/24 11:22:44;;;;;;;2.70;2.57;;;29.20;70.00;;;;;;5063609;28;20449;-89
2022/07/24 11:25:16;;;;;;;3.00;2.80;;;29.40;69.30;;;;;;5052486;28;20553;-88
2022/07/24 11:27:59;;;;;;;3.40;3.20;;;29.00;70.00;;;;;;5067090;28;20793;-85
2022/07/24 11:30:28;;;;;;;2.83;2.63;;;29.30;69.50;;;;;;5065357;28;20568;-85
2022/07/24 11:32:55;;;;;;;3.50;3.17;;;29.30;71.30;;;;;;5063570;28;20506;-87
2022/07/24 11:35:31;;;;;;;3.70;3.50;;;29.20;67.40;;;;;;5068729;28;20449;-85
2022/07/24 11:38:01;;;;;;;3.70;3.20;;;28.90;69.50;;;;;;5061053;28;20451;-88
2022/07/24 11:40:28;;;;;;;3.80;3.47;;;29.30;67.40;;;;;;5036088;28;20453;-88
2022/07/24 11:42:58;;;;;;;3.20;3.00;;;29.70;70.70;;;;;;5060330;28;20456;-85
2022/07/24 11:45:25;;;;;;;2.57;2.37;;;29.90;66.20;;;;;;5059812;28;20466;-85
2022/07/24 11:47:54;;;;;;;2.50;2.40;;;29.80;70.80;;;;;;5061217;28;20467;-85
2022/07/24 11:50:23;;;;;;;2.77;2.57;;;29.00;66.90;;;;;;5055526;28;20491;-86
2022/07/24 11:52:50;;;;;;;2.57;2.37;;;29.60;70.80;;;;;;5068146;28;20465;-85
2022/07/24 11:55:19;;;;;;;2.57;2.37;;;30.10;66.10;;;;;;5081033;28;20452;-85
2022/07/24 11:57:48;;;;;;;3.40;2.70;;;30.10;64.70;;;;;;5075635;28;20524;-86
2022/07/24 12:00:19;;;;;;;2.63;2.43;;;30.40;62.20;;;;;;5058109;28;20477;-86
2022/07/24 12:02:47;;;;;;;3.07;2.87;;;30.10;63.40;;;;;;5063048;28;20515;-86
2022/07/24 12:05:23;;;;;;;4.10;2.57;;;29.50;64.70;;;;;;5062425;28;20452;-85
2022/07/24 12:07:50;;;;;;;3.00;2.80;;;29.80;63.30;;;;;;5059056;28;20463;-86
2022/07/24 12:10:20;;;;;;;2.30;2.10;;;29.90;61.80;;;;;;5055796;28;20464;-84
2022/07/24 12:12:49;;;;;;;3.40;3.10;;;30.10;63.10;;;;;;5061004;28;20515;-85
2022/07/24 12:15:18;;;;;;;2.70;2.60;;;30.30;63.00;;;;;;5055466;28;20471;-87
2022/07/24 12:17:57;;;;;;;3.17;2.97;;;30.00;61.50;;;;;;5060282;28;21024;-86
2022/07/24 12:20:26;;;;;;;2.73;2.50;;;29.70;60.40;;;;;;5059246;28;20535;-88
2022/07/24 12:22:53;;;;;;;3.43;3.20;;;29.70;60.50;;;;;;5048557;28;20541;-87
2022/07/24 12:25:21;;;;;;;3.50;3.10;;;30.00;65.10;;;;;;5055548;28;20464;-85
2022/07/24 12:27:48;;;;;;;2.37;2.17;;;30.30;65.40;;;;;;5047705;28;20457;-87
2022/07/24 12:30:27;;;;;;;2.70;2.53;;;30.50;60.30;;;;;;5051245;28;20455;-86
2022/07/24 12:32:56;;;;;;;3.40;2.97;;;30.10;63.30;;;;;;5048693;28;20452;-87
2022/07/24 12:35:23;;;;;;;2.80;2.60;;;30.10;62.40;;;;;;5051452;28;20958;-85
2022/07/24 12:37:50;;;;;;;2.70;2.50;;;29.90;60.90;;;;;;5052562;28;20791;-86
2022/07/24 12:40:24;;;;;;;2.83;2.63;;;29.80;60.60;;;;;;5054451;28;20476;-85
2022/07/24 12:42:57;;;;;;;2.37;2.17;;;29.50;60.00;;;;;;5064059;28;20477;-85
2022/07/24 12:45:26;;;;;;;3.00;2.77;;;29.90;61.30;;;;;;5067389;28;20475;-86
2022/07/24 12:48:27;;;;;;;2.90;2.60;;;29.70;60.40;;;;;;5066338;28;20447;-86
2022/07/24 12:51:06;;;;;;;2.77;2.57;;;30.20;62.80;;;;;;5060747;28;20484;-86
2022/07/24 12:53:37;;;;;;;2.30;2.20;;;30.10;58.80;;;;;;5055117;28;20542;-86
2022/07/24 12:56:11;;;;;;;2.50;2.30;;;30.10;59.90;;;;;;5066856;28;20501;-87